Saint Pete Beach, FL

10:54 PM EDT on September 17, 2014 (GMT -0400)
Tampa International | Change Station
CLOSE
Current Station
Airport
Location: Tampa,
Elevation: 10 ft
Nearby Weather Stations

Elev 10 ft 27.96 °N, 82.54 °W | Updated 1 hour ago

Clear
Clear
77 °F
Feels Like 77 °F
N
0
Wind Variable Wind from North

Today
High -- | Low -- °F
--% Chance of Precip.
Yesterday
High -- | Low -- °F
Precip. -- in
7:17 AM 7:33 PM
Waning Crescent, 31% visible
Pressure 29.92 in
Visibility 10.0 miles
Clouds Few 28000 ft
Dew Point 72 °F
Humidity 84%
Rainfall 1.85 in
Snow Depth Not available.
UV 0 out of 12
Pollen 3.20 out of 12
Air Quality Not available.
Flu Activity Not available.
METAR KTPA 180153Z 00000KT 10SM FEW280 25/22 A2992 RMK AO2 SLP132 T02500222

More Conditions Fewer Conditions

Pressure 29.92 in
Visibility 10.0 miles
Clouds Few 28000 ft
Dew Point 72 °F
Humidity 84%
Rainfall 1.85 in
Snow Depth Not available.
UV 0 out of 12
Pollen 3.20 out of 12
Air Quality Not available.
Flu Activity Not available.
METAR KTPA 180153Z 00000KT 10SM FEW280 25/22 A2992 RMK AO2 SLP132 T02500222

More Conditions Fewer Conditions

10-Day Weather Forecast

Almanac

Astronomy

Sep. 17, 2014 Rise Set
Actual Time 7:17 AM EDT 7:33 PM EDT
Civil Twilight 6:53 AM EDT 7:56 PM EDT
Nautical Twilight 6:26 AM EDT 8:24 PM EDT
Astronomical Twilight 5:58 AM EDT 8:51 PM EDT
Moon 1:37 AM EDT (9/17) 3:21 PM EDT (9/17)
Length of Visible Light 13h 02m
Length of Day
12h 16m
Tomorrow will be 1m 37s shorter.
Waning Crescent, 31% of the Moon is Illuminated
Today
Waning Crescent
Sep 24
New
Oct 1
First Quarter
Oct 8
Full
Oct 15
Last Quarter

Today's Extremes

State Highs State Lows

Community

WunderPhotos

Upload Photos

1,754,268 photos uploaded!

Nearby

Air Quality

  Air Quality AQ Index Pollutant
Yesterday Moderate
PM2.5
Yesterday Good
OZONE
Wednesday Good
PM2.5
Wednesday Good
OZONE
Thursday Good
PM2.5
Thursday Good
OZONE

Snow Depth

Station Depth Elevation
No new snow has been reported.

Earthquake Activity

City Distance Mag. Time & Date
No recent earthquake activity has been reported nearby.
Minimum magnitude displayed is 2.5.

Coastal Water Temperatures

Place Temperature
Port Manatee, FL 82.9 °F
St Petersburg, FL 87.1 °F
Old Port Tampa, FL 84.0 °F

Nearby Weather Stations